Time;durP1;ratioP1;P1;durP2;ratioP2;P2;SDS_P1;SDS_P2;PMS_P1;PMS_P2;Temp;Humidity;BMP_temperature;BMP_pressure;BME280_temperature;BME280_humidity;BME280_pressure;Samples;Min_cycle;Max_cycle;Signal;HPM_P1;HPM_P2
2023/04/04 00:02:07;;;;;;;4.73;2.07;;;;;2.00;102287.00;;;;10388664;28;20298;-75
2023/04/04 00:07:09;;;;;;;4.03;1.97;;;;;1.90;102269.00;;;;10389487;28;20233;-75
2023/04/04 00:12:11;;;;;;;3.73;2.17;;;;;1.80;102273.00;;;;10386740;28;20222;-75
2023/04/04 00:17:13;;;;;;;5.87;2.03;;;;;1.80;102269.00;;;;10377862;28;20216;-75
2023/04/04 00:22:14;;;;;;;3.77;1.93;;;;;1.70;102270.00;;;;10348077;28;20195;-75
2023/04/04 00:27:16;;;;;;;3.97;2.00;;;;;1.60;102269.00;;;;10368980;28;20191;-75
2023/04/04 00:32:18;;;;;;;4.17;1.97;;;;;1.40;102264.00;;;;10389681;28;20298;-75
2023/04/04 00:37:20;;;;;;;2.43;1.93;;;;;1.30;102271.00;;;;10382164;28;20222;-75
2023/04/04 00:42:22;;;;;;;5.47;2.17;;;;;1.20;102279.00;;;;10370406;28;20206;-75
2023/04/04 00:47:31;;;;;;;4.50;2.10;;;;;0.90;102272.00;;;;10374519;28;20945;-75
2023/04/04 00:52:33;;;;;;;2.80;1.83;;;;;0.80;102277.00;;;;10370299;28;20206;-75
2023/04/04 00:57:35;;;;;;;4.90;2.07;;;;;0.70;102286.00;;;;10369136;28;20810;-75
2023/04/04 01:02:38;;;;;;;6.00;2.53;;;;;0.60;102287.00;;;;10369930;28;20186;-75
2023/04/04 01:07:40;;;;;;;5.53;2.30;;;;;0.60;102287.00;;;;10415060;28;20198;-75
2023/04/04 01:12:43;;;;;;;5.37;2.37;;;;;0.50;102298.00;;;;10418260;28;20212;-75
2023/04/04 01:17:46;;;;;;;6.77;2.60;;;;;0.50;102304.00;;;;10385564;28;21152;-75
2023/04/04 01:22:50;;;;;;;5.33;3.13;;;;;0.50;102299.00;;;;10352424;28;20724;-75
2023/04/04 01:27:53;;;;;;;5.37;2.53;;;;;0.50;102294.00;;;;10353503;28;20650;-75
2023/04/04 01:33:12;;;;;;;5.57;2.23;;;;;0.50;102293.00;;;;10353954;28;20290;-75
2023/04/04 01:38:32;;;;;;;3.20;2.17;;;;;0.50;102308.00;;;;10403996;28;20313;-75
2023/04/04 01:43:36;;;;;;;5.27;2.13;;;;;0.40;102300.00;;;;10358617;28;20706;-75
2023/04/04 01:48:39;;;;;;;4.23;1.97;;;;;0.30;102294.00;;;;10386457;28;20210;-75
2023/04/04 01:53:42;;;;;;;6.50;2.70;;;;;0.20;102301.00;;;;10386055;28;20266;-75
2023/04/04 01:58:44;;;;;;;7.27;2.30;;;;;0.10;102304.00;;;;10382644;28;20265;-75
2023/04/04 02:03:47;;;;;;;3.17;2.00;;;;;0.00;102299.00;;;;10382855;28;20743;-75
2023/04/04 02:08:49;;;;;;;5.33;2.10;;;;;0.00;102294.00;;;;10366173;28;20206;-75
2023/04/04 02:13:51;;;;;;;4.57;2.50;;;;;-0.10;102289.00;;;;10401062;28;20207;-75
2023/04/04 02:18:54;;;;;;;5.23;1.97;;;;;-0.10;102298.00;;;;10364359;28;20229;-75
2023/04/04 02:23:56;;;;;;;7.50;2.60;;;;;-0.10;102296.00;;;;10362884;28;20222;-75
2023/04/04 02:28:58;;;;;;;4.20;2.23;;;;;-0.20;102301.00;;;;10397970;28;20206;-75
2023/04/04 02:34:00;;;;;;;3.23;2.27;;;;;-0.30;102287.00;;;;10383759;28;20203;-75
2023/04/04 02:39:03;;;;;;;6.57;2.73;;;;;-0.30;102289.00;;;;10366578;28;20222;-75
2023/04/04 02:44:07;;;;;;;6.50;2.40;;;;;-0.40;102276.00;;;;10351743;28;20214;-73
2023/04/04 02:49:11;;;;;;;7.67;2.33;;;;;-0.40;102276.00;;;;10386791;28;20600;-75
2023/04/04 02:54:18;;;;;;;4.07;2.10;;;;;-0.50;102268.00;;;;10360770;28;20206;-73
2023/04/04 02:59:21;;;;;;;4.20;2.07;;;;;-0.50;102272.00;;;;10376108;28;20814;-75
2023/04/04 03:04:24;;;;;;;3.67;2.20;;;;;-0.50;102265.00;;;;10358044;28;20215;-73
2023/04/04 03:09:26;;;;;;;4.20;2.37;;;;;-0.50;102253.00;;;;10361121;28;20298;-75
2023/04/04 03:14:28;;;;;;;4.83;2.03;;;;;-0.60;102255.00;;;;10362787;28;20199;-75
2023/04/04 03:19:31;;;;;;;5.17;2.17;;;;;-0.60;102270.00;;;;10395707;28;20742;-75
2023/04/04 03:24:35;;;;;;;9.10;3.20;;;;;-0.70;102265.00;;;;10344494;28;20278;-75
2023/04/04 03:29:39;;;;;;;4.13;2.60;;;;;-0.80;102261.00;;;;10359578;28;20199;-75
2023/04/04 03:34:41;;;;;;;4.77;2.30;;;;;-0.90;102256.00;;;;10377723;28;20202;-75
2023/04/04 03:39:43;;;;;;;6.87;2.70;;;;;-1.00;102268.00;;;;10376844;28;20838;-75
2023/04/04 03:44:45;;;;;;;4.17;2.30;;;;;-1.10;102267.00;;;;10376882;28;20241;-75
2023/04/04 03:49:54;;;;;;;5.33;2.60;;;;;-1.20;102273.00;;;;10392191;28;20230;-75
2023/04/04 03:54:58;;;;;;;7.00;2.73;;;;;-1.30;102265.00;;;;10360516;28;20298;-75
2023/04/04 04:00:00;;;;;;;2.97;2.30;;;;;-1.30;102274.00;;;;10351034;28;20222;-75
2023/04/04 04:05:12;;;;;;;3.47;2.20;;;;;-1.40;102279.00;;;;10365233;28;20192;-75
2023/04/04 04:10:15;;;;;;;5.33;2.67;;;;;-1.40;102267.00;;;;10375342;28;20214;-75
2023/04/04 04:15:17;;;;;;;5.17;2.93;;;;;-1.40;102282.00;;;;10391186;28;20210;-75
2023/04/04 04:20:20;;;;;;;4.97;2.50;;;;;-1.40;102284.00;;;;10391772;28;20222;-75
2023/04/04 04:25:26;;;;;;;4.77;2.67;;;;;-1.30;102273.00;;;;10376056;28;20233;-75
2023/04/04 04:30:47;;;;;;;4.67;2.90;;;;;-1.40;102276.00;;;;10376080;28;20214;-75
2023/04/04 04:35:53;;;;;;;6.33;3.50;;;;;-1.40;102277.00;;;;10391711;28;20202;-75
2023/04/04 04:40:58;;;;;;;5.83;2.90;;;;;-1.50;102264.00;;;;10377563;28;20222;-75
2023/04/04 04:46:07;;;;;;;5.23;3.00;;;;;-1.50;102267.00;;;;10356972;28;20196;-75
2023/04/04 04:51:10;;;;;;;4.17;2.87;;;;;-1.50;102263.00;;;;10392328;28;20198;-75
2023/04/04 04:56:20;;;;;;;4.57;2.73;;;;;-1.50;102271.00;;;;10357594;28;20203;-75
2023/04/04 05:01:26;;;;;;;4.17;2.67;;;;;-1.60;102281.00;;;;10351073;28;20232;-75
2023/04/04 05:06:30;;;;;;;4.43;2.97;;;;;-1.60;102292.00;;;;10373974;28;20199;-75
2023/04/04 05:11:32;;;;;;;3.20;2.50;;;;;-1.70;102295.00;;;;10374378;28;20195;-75
2023/04/04 05:16:37;;;;;;;7.97;3.30;;;;;-1.70;102289.00;;;;10373767;28;20195;-75
2023/04/04 05:21:40;;;;;;;4.20;3.50;;;;;-1.70;102279.00;;;;10369792;28;20191;-75
2023/04/04 05:26:47;;;;;;;6.73;3.63;;;;;-1.60;102283.00;;;;10343359;28;20487;-75
2023/04/04 05:31:49;;;;;;;8.43;3.57;;;;;-1.50;102284.00;;;;10373633;28;20199;-75
2023/04/04 05:36:54;;;;;;;4.40;3.47;;;;;-1.30;102285.00;;;;10356886;28;20205;-75
2023/04/04 05:41:56;;;;;;;8.20;5.27;;;;;-1.00;102292.00;;;;10371368;28;20220;-73
2023/04/04 05:46:59;;;;;;;11.33;6.40;;;;;-0.80;102295.00;;;;10392351;28;20218;-75
2023/04/04 05:52:02;;;;;;;8.53;4.70;;;;;-0.50;102305.00;;;;10365855;28;20206;-75
2023/04/04 05:57:05;;;;;;;9.77;4.87;;;;;-0.40;102316.00;;;;10397838;28;20245;-74
2023/04/04 06:02:13;;;;;;;8.23;4.30;;;;;-0.10;102313.00;;;;10359037;28;20635;-75
2023/04/04 06:07:20;;;;;;;5.87;4.23;;;;;0.30;102326.00;;;;10357654;28;20214;-75
2023/04/04 06:12:24;;;;;;;7.80;4.37;;;;;0.50;102338.00;;;;10393834;28;20195;-75
2023/04/04 06:17:26;;;;;;;9.63;4.67;;;;;0.90;102334.00;;;;10359038;28;20226;-75
2023/04/04 06:22:29;;;;;;;6.77;4.33;;;;;1.40;102338.00;;;;10345338;28;20205;-76
2023/04/04 06:27:31;;;;;;;7.50;4.57;;;;;1.90;102332.00;;;;10380398;28;20213;-75
2023/04/04 06:32:36;;;;;;;7.50;3.70;;;;;2.40;102342.00;;;;10367182;28;20230;-75
2023/04/04 06:37:40;;;;;;;8.47;3.80;;;;;3.10;102334.00;;;;10422953;28;20249;-75
2023/04/04 06:42:56;;;;;;;6.93;4.30;;;;;3.70;102341.00;;;;10369999;28;20198;-75
2023/04/04 06:48:02;;;;;;;6.37;4.00;;;;;4.10;102346.00;;;;10385417;28;20321;-73
2023/04/04 06:53:08;;;;;;;6.30;3.17;;;;;4.20;102347.00;;;;10368813;28;20697;-76
2023/04/04 06:58:10;;;;;;;4.20;3.30;;;;;4.70;102363.00;;;;10396456;28;20301;-74
2023/04/04 07:03:12;;;;;;;7.33;3.00;;;;;5.10;102370.00;;;;10344374;28;20242;-74
2023/04/04 07:08:14;;;;;;;8.57;3.13;;;;;5.20;102375.00;;;;10370298;28;20215;-74
2023/04/04 07:13:16;;;;;;;7.70;3.37;;;;;5.60;102377.00;;;;10382082;28;20784;-74
2023/04/04 07:18:18;;;;;;;6.13;2.70;;;;;5.90;102389.00;;;;10370782;28;20219;-74
2023/04/04 07:23:20;;;;;;;8.47;3.37;;;;;5.80;102372.00;;;;10388494;28;20207;-74
2023/04/04 07:28:22;;;;;;;5.03;2.47;;;;;6.00;102369.00;;;;10417268;28;21937;-74
2023/04/04 07:33:24;;;;;;;6.03;2.60;;;;;6.40;102373.00;;;;10398856;28;20260;-74
2023/04/04 07:38:26;;;;;;;5.37;2.90;;;;;6.60;102366.00;;;;10389532;28;20219;-74
2023/04/04 07:43:28;;;;;;;6.73;3.23;;;;;6.90;102354.00;;;;10398447;28;20286;-74
2023/04/04 07:48:30;;;;;;;4.17;2.50;;;;;7.00;102353.00;;;;10378237;28;20302;-74
2023/04/04 07:53:32;;;;;;;4.57;2.50;;;;;7.30;102357.00;;;;10382198;28;20400;-74
2023/04/04 07:58:35;;;;;;;6.60;2.90;;;;;7.70;102344.00;;;;10377775;28;20280;-78
2023/04/04 08:03:37;;;;;;;5.83;2.60;;;;;8.00;102341.00;;;;10402575;28;20638;-78
2023/04/04 08:08:40;;;;;;;5.47;2.40;;;;;8.20;102343.00;;;;10370148;28;20282;-77
2023/04/04 08:13:42;;;;;;;4.63;2.50;;;;;8.20;102345.00;;;;10391002;28;20249;-78
2023/04/04 08:18:44;;;;;;;5.17;2.73;;;;;8.50;102349.00;;;;10384122;28;20963;-78
2023/04/04 08:23:46;;;;;;;4.97;2.20;;;;;8.80;102347.00;;;;10386358;28;20234;-78
2023/04/04 08:28:49;;;;;;;4.90;2.30;;;;;9.00;102341.00;;;;10388985;28;20199;-78
2023/04/04 08:33:51;;;;;;;3.90;2.23;;;;;9.50;102334.00;;;;10403704;28;20210;-78
2023/04/04 08:38:53;;;;;;;5.63;2.60;;;;;9.80;102348.00;;;;10348221;28;20205;-78
2023/04/04 08:43:57;;;;;;;3.50;2.10;;;;;10.20;102350.00;;;;10401482;28;20209;-77
2023/04/04 08:49:03;;;;;;;3.73;1.83;;;;;10.30;102345.00;;;;10363948;28;20203;-77
2023/04/04 08:54:05;;;;;;;3.13;2.00;;;;;10.60;102354.00;;;;10403828;28;20203;-78
2023/04/04 08:59:10;;;;;;;4.60;2.10;;;;;10.70;102362.00;;;;10369041;28;20229;-78
2023/04/04 09:04:12;;;;;;;5.70;2.57;;;;;10.90;102375.00;;;;10346079;28;20203;-78
2023/04/04 09:09:16;;;;;;;4.37;2.53;;;;;11.10;102358.00;;;;10370191;28;20458;-78
2023/04/04 09:14:20;;;;;;;4.40;2.37;;;;;10.90;102355.00;;;;10353690;28;20282;-78
2023/04/04 09:19:21;;;;;;;3.87;2.57;;;;;11.10;102360.00;;;;10395531;28;20246;-79
2023/04/04 09:24:40;;;;;;;3.00;1.83;;;;;11.30;102358.00;;;;10375800;28;20208;-78
2023/04/04 09:29:42;;;;;;;2.73;2.00;;;;;11.60;102364.00;;;;10365141;28;20281;-78
2023/04/04 09:34:44;;;;;;;3.87;2.13;;;;;11.70;102359.00;;;;10351828;28;20286;-79
2023/04/04 09:39:47;;;;;;;4.87;2.30;;;;;11.80;102346.00;;;;10362527;28;20305;-78
2023/04/04 09:44:53;;;;;;;4.97;2.00;;;;;11.90;102345.00;;;;10340023;28;20191;-78
2023/04/04 09:49:59;;;;;;;4.40;2.03;;;;;12.10;102347.00;;;;10397434;28;20569;-79
2023/04/04 09:55:04;;;;;;;5.00;2.43;;;;;12.20;102340.00;;;;10365636;28;20746;-78
2023/04/04 10:00:08;;;;;;;6.30;2.67;;;;;12.50;102347.00;;;;10377859;28;20306;-78
2023/04/04 10:05:10;;;;;;;4.77;2.20;;;;;12.70;102340.00;;;;10374686;28;20570;-79
2023/04/04 10:10:12;;;;;;;3.63;2.10;;;;;12.60;102347.00;;;;10368941;28;20304;-79
2023/04/04 10:15:15;;;;;;;4.77;2.60;;;;;13.10;102339.00;;;;10395245;28;20211;-78
2023/04/04 10:20:19;;;;;;;4.57;2.63;;;;;13.70;102328.00;;;;10357166;28;20251;-79
2023/04/04 10:25:22;;;;;;;3.30;2.30;;;;;13.70;102330.00;;;;10368581;28;20222;-78
2023/04/04 10:30:24;;;;;;;3.13;2.30;;;;;13.80;102322.00;;;;10392987;28;20203;-78
2023/04/04 10:35:28;;;;;;;4.25;2.40;;;;;14.30;102320.00;;;;10399474;28;20202;-78
2023/04/04 10:40:38;;;;;;;6.10;2.40;;;;;14.80;102316.00;;;;10371678;28;20222;-78
2023/04/04 10:45:41;;;;;;;3.95;2.40;;;;;15.00;102312.00;;;;10380867;28;20709;-77
2023/04/04 10:50:46;;;;;;;4.80;3.33;;;;;14.90;102314.00;;;;10360674;28;20210;-78
2023/04/04 10:55:48;;;;;;;6.07;2.67;;;;;14.60;102308.00;;;;10385548;28;20196;-77
2023/04/04 11:00:53;;;;;;;5.70;2.38;;;;;14.80;102292.00;;;;10355005;28;20218;-77
2023/04/04 11:06:00;;;;;;;5.63;2.30;;;;;15.30;102287.00;;;;10335646;28;20199;-74
2023/04/04 11:11:03;;;;;;;5.95;2.80;;;;;15.10;102282.00;;;;10367291;28;20234;-74
2023/04/04 11:16:18;;;;;;;4.47;2.85;;;;;15.50;102287.00;;;;10362838;28;20203;-75
2023/04/04 11:21:26;;;;;;;8.65;2.25;;;;;16.10;102282.00;;;;10404148;28;20269;-74
2023/04/04 11:26:28;;;;;;;7.25;2.80;;;;;15.70;102276.00;;;;10378414;28;20214;-75
2023/04/04 11:31:39;;;;;;;6.80;2.50;;;;;15.80;102264.00;;;;10373123;28;20199;-75
2023/04/04 11:36:43;;;;;;;3.42;2.35;;;;;15.80;102270.00;;;;10378048;28;20483;-76
2023/04/04 11:42:12;;;;;;;5.50;2.20;;;;;16.20;102253.00;;;;10369469;28;20240;-75
2023/04/04 11:47:18;;;;;;;5.85;2.30;;;;;16.50;102248.00;;;;10357108;28;20215;-76
2023/04/04 11:52:22;;;;;;;4.88;2.13;;;;;16.20;102251.00;;;;10366898;28;20219;-76
2023/04/04 11:57:24;;;;;;;2.78;1.85;;;;;15.50;102246.00;;;;10364210;28;20203;-76
2023/04/04 12:02:30;;;;;;;3.80;1.88;;;;;15.50;102237.00;;;;10323073;28;20216;-75
2023/04/04 12:07:34;;;;;;;5.45;2.17;;;;;15.50;102227.00;;;;10388293;28;20256;-75
2023/04/04 12:12:38;;;;;;;3.13;2.40;;;;;15.70;102226.00;;;;10369945;28;20206;-76
2023/04/04 12:17:41;;;;;;;6.75;2.38;;;;;16.10;102222.00;;;;10383610;28;20253;-75
2023/04/04 12:22:47;;;;;;;4.05;2.95;;;;;16.20;102216.00;;;;10360912;28;20324;-76
2023/04/04 12:27:51;;;;;;;2.83;1.98;;;;;15.90;102213.00;;;;10340854;28;20401;-76
2023/04/04 12:32:53;;;;;;;2.97;2.17;;;;;15.70;102211.00;;;;10374928;28;20190;-76
2023/04/04 12:38:01;;;;;;;3.60;2.60;;;;;15.70;102203.00;;;;10375477;28;20199;-77
2023/04/04 12:43:07;;;;;;;4.35;2.70;;;;;15.60;102210.00;;;;10369700;28;20199;-76
2023/04/04 12:48:14;;;;;;;4.55;2.65;;;;;15.80;102189.00;;;;10358963;28;21176;-77
2023/04/04 12:53:22;;;;;;;5.57;2.90;;;;;16.50;102185.00;;;;10387930;28;20257;-77
2023/04/04 12:58:27;;;;;;;4.50;2.88;;;;;16.80;102176.00;;;;10374345;28;20214;-76
2023/04/04 13:03:29;;;;;;;4.72;2.85;;;;;17.10;102174.00;;;;10355196;28;20215;-77
2023/04/04 13:08:32;;;;;;;7.82;3.08;;;;;17.30;102170.00;;;;10370515;28;20712;-77
2023/04/04 13:13:37;;;;;;;4.07;2.40;;;;;17.10;102171.00;;;;10356020;28;20213;-77
2023/04/04 13:18:42;;;;;;;4.35;2.58;;;;;18.80;102155.00;;;;10336042;28;20231;-76
2023/04/04 13:23:44;;;;;;;5.88;2.95;;;;;18.70;102147.00;;;;10331781;28;20234;-76
2023/04/04 13:28:46;;;;;;;8.82;3.53;;;;;20.30;102137.00;;;;10416205;28;20857;-77
2023/04/04 13:33:48;;;;;;;5.13;2.75;;;;;21.30;102114.00;;;;10359935;28;20226;-77
2023/04/04 13:38:50;;;;;;;6.68;2.47;;;;;22.00;102107.00;;;;10341518;28;20308;-77
2023/04/04 13:43:52;;;;;;;6.28;2.97;;;;;22.00;102098.00;;;;10386757;28;20194;-76
2023/04/04 13:48:55;;;;;;;5.90;3.25;;;;;22.80;102098.00;;;;10359671;28;20221;-76
2023/04/04 13:53:57;;;;;;;5.60;2.97;;;;;23.40;102087.00;;;;10351461;28;20203;-76
2023/04/04 13:58:59;;;;;;;5.47;3.17;;;;;23.70;102079.00;;;;10362431;28;20309;-77
2023/04/04 14:04:01;;;;;;;4.57;2.50;;;;;24.20;102073.00;;;;10368796;28;20191;-76
2023/04/04 14:09:17;;;;;;;4.25;2.55;;;;;24.10;102075.00;;;;10346288;28;20213;-76
2023/04/04 14:14:20;;;;;;;4.82;2.83;;;;;24.60;102070.00;;;;10364062;28;20288;-76
2023/04/04 14:19:22;;;;;;;5.18;3.15;;;;;24.60;102066.00;;;;10394779;28;20540;-76
2023/04/04 14:24:24;;;;;;;4.50;3.40;;;;;24.80;102054.00;;;;10344889;28;20223;-76
2023/04/04 14:29:27;;;;;;;9.77;3.55;;;;;25.10;102049.00;;;;10381207;28;20568;-77
2023/04/04 14:34:29;;;;;;;6.07;3.20;;;;;24.10;102048.00;;;;10357088;28;20213;-77
2023/04/04 14:39:32;;;;;;;4.07;3.13;;;;;23.40;102040.00;;;;10367244;28;20215;-76
2023/04/04 14:44:34;;;;;;;6.15;3.30;;;;;23.90;102031.00;;;;10346959;28;20199;-76
2023/04/04 14:49:36;;;;;;;3.85;2.75;;;;;24.00;102020.00;;;;10373075;28;20195;-76
2023/04/04 14:54:38;;;;;;;4.35;2.95;;;;;21.60;102036.00;;;;10382737;28;20191;-76
2023/04/04 14:59:41;;;;;;;5.35;3.22;;;;;24.00;102016.00;;;;10360191;28;20229;-76
2023/04/04 15:04:43;;;;;;;5.80;3.60;;;;;22.20;102036.00;;;;10373505;28;20195;-76
2023/04/04 15:09:45;;;;;;;7.55;2.90;;;;;21.60;102032.00;;;;10386179;28;20258;-76
2023/04/04 15:14:47;;;;;;;3.90;2.85;;;;;21.80;102028.00;;;;10372437;28;20693;-76
2023/04/04 15:19:49;;;;;;;7.22;3.35;;;;;19.50;102029.00;;;;10396206;28;20636;-78
2023/04/04 15:24:51;;;;;;;9.05;4.53;;;;;18.90;102031.00;;;;10393661;28;20298;-78
2023/04/04 15:29:53;;;;;;;5.68;3.35;;;;;16.80;102036.00;;;;10351272;28;20765;-77
2023/04/04 15:34:56;;;;;;;6.82;3.75;;;;;16.30;102035.00;;;;10380529;28;20210;-78
2023/04/04 15:39:58;;;;;;;6.32;3.38;;;;;16.10;102025.00;;;;10380360;28;20212;-78
2023/04/04 15:45:00;;;;;;;6.38;3.13;;;;;16.70;102021.00;;;;10357014;28;20192;-77
2023/04/04 15:50:02;;;;;;;6.55;3.28;;;;;15.10;102026.00;;;;10393698;28;20194;-77
2023/04/04 15:55:10;;;;;;;4.50;3.03;;;;;13.90;102020.00;;;;10380347;28;20206;-77
2023/04/04 16:00:13;;;;;;;5.57;3.23;;;;;13.40;102011.00;;;;10378983;28;20238;-77
2023/04/04 16:05:15;;;;;;;6.40;3.50;;;;;13.10;101998.00;;;;10393893;28;20726;-77
2023/04/04 16:10:18;;;;;;;4.00;2.90;;;;;12.90;101990.00;;;;10360644;28;20199;-78
2023/04/04 16:15:20;;;;;;;7.07;3.00;;;;;12.80;101982.00;;;;10376159;28;20214;-77
2023/04/04 16:20:22;;;;;;;4.20;2.63;;;;;12.80;101989.00;;;;10372300;28;20210;-77
2023/04/04 16:25:24;;;;;;;5.70;2.93;;;;;12.70;101980.00;;;;10371748;28;20222;-77
2023/04/04 16:30:27;;;;;;;4.47;3.00;;;;;12.70;101973.00;;;;10390964;28;20261;-77
2023/04/04 16:35:31;;;;;;;4.00;3.00;;;;;12.50;101969.00;;;;10357114;28;20210;-77
2023/04/04 16:40:33;;;;;;;5.47;3.00;;;;;12.30;101968.00;;;;10368475;28;20206;-77
2023/04/04 16:45:35;;;;;;;6.00;3.07;;;;;12.10;101969.00;;;;10385816;28;20223;-76
2023/04/04 16:50:37;;;;;;;4.73;2.50;;;;;11.80;101959.00;;;;10353912;28;20199;-77
2023/04/04 16:55:40;;;;;;;6.60;2.80;;;;;11.80;101969.00;;;;10355429;28;20199;-77
2023/04/04 17:00:42;;;;;;;4.43;2.60;;;;;11.60;101956.00;;;;10369386;28;20222;-77
2023/04/04 17:05:44;;;;;;;4.03;2.50;;;;;11.60;101973.00;;;;10385127;28;20225;-77
2023/04/04 17:10:46;;;;;;;5.53;2.43;;;;;11.40;101958.00;;;;10359426;28;20610;-77
2023/04/04 17:15:49;;;;;;;4.40;2.37;;;;;11.20;101966.00;;;;10354282;28;20210;-77
2023/04/04 17:20:51;;;;;;;10.70;3.40;;;;;10.90;101971.00;;;;10385371;28;20609;-77
2023/04/04 17:25:53;;;;;;;6.13;2.57;;;;;10.70;101961.00;;;;10368460;28;20268;-77
2023/04/04 17:30:57;;;;;;;4.07;2.53;;;;;10.50;101961.00;;;;10355666;28;20798;-77
2023/04/04 17:35:59;;;;;;;3.07;2.10;;;;;10.30;101963.00;;;;10385743;28;20229;-77
2023/04/04 17:41:03;;;;;;;6.43;2.93;;;;;10.00;101968.00;;;;10325096;28;20313;-78
2023/04/04 17:46:05;;;;;;;6.77;2.40;;;;;9.90;101966.00;;;;10390191;28;20207;-77
2023/04/04 17:51:08;;;;;;;4.27;2.50;;;;;9.70;101969.00;;;;10390085;28;20191;-76
2023/04/04 17:56:10;;;;;;;6.67;3.00;;;;;9.60;101962.00;;;;10351832;28;20202;-78
2023/04/04 18:01:12;;;;;;;3.87;2.73;;;;;9.50;101957.00;;;;10367410;28;20218;-76
2023/04/04 18:06:14;;;;;;;5.13;2.67;;;;;9.30;101956.00;;;;10356003;28;20809;-76
2023/04/04 18:11:16;;;;;;;6.10;3.43;;;;;9.00;101952.00;;;;10370777;28;20199;-77
2023/04/04 18:16:18;;;;;;;4.30;3.03;;;;;8.70;101957.00;;;;10383950;28;20191;-76
2023/04/04 18:21:20;;;;;;;6.27;2.60;;;;;8.50;101954.00;;;;10400845;28;20848;-78
2023/04/04 18:26:22;;;;;;;4.73;2.90;;;;;8.20;101953.00;;;;10398659;28;20698;-78
2023/04/04 18:31:25;;;;;;;5.53;3.20;;;;;8.00;101958.00;;;;10348265;28;20531;-78
2023/04/04 18:36:27;;;;;;;5.40;3.93;;;;;7.90;101953.00;;;;10361610;28;20585;-78
2023/04/04 18:41:29;;;;;;;6.97;4.17;;;;;7.80;101957.00;;;;10353120;28;20214;-78
2023/04/04 18:46:31;;;;;;;4.27;3.23;;;;;7.70;101960.00;;;;10330662;28;20276;-78
2023/04/04 18:51:33;;;;;;;13.00;5.47;;;;;7.50;101975.00;;;;10358002;28;20280;-78
2023/04/04 18:56:35;;;;;;;9.77;5.00;;;;;7.30;101969.00;;;;10379263;28;20302;-78
2023/04/04 19:01:39;;;;;;;8.47;4.20;;;;;7.20;101966.00;;;;10328320;28;20219;-77
2023/04/04 19:06:43;;;;;;;7.50;4.43;;;;;7.00;101975.00;;;;10395813;28;20199;-78
2023/04/04 19:11:45;;;;;;;10.63;7.00;;;;;6.90;101969.00;;;;10371009;28;20203;-77
2023/04/04 19:16:47;;;;;;;15.17;8.37;;;;;6.80;101971.00;;;;10365519;28;20305;-78
2023/04/04 19:21:49;;;;;;;6.07;5.00;;;;;6.80;101987.00;;;;10365779;28;20817;-77
2023/04/04 19:26:51;;;;;;;8.67;3.90;;;;;6.70;101979.00;;;;10350456;28;20569;-78
2023/04/04 19:31:54;;;;;;;8.53;4.47;;;;;6.60;101985.00;;;;10367610;28;20222;-77
2023/04/04 19:36:56;;;;;;;7.00;4.77;;;;;6.40;101990.00;;;;10363845;28;20670;-78
2023/04/04 19:42:00;;;;;;;7.90;4.60;;;;;6.30;101996.00;;;;10350606;28;20211;-77
2023/04/04 19:47:02;;;;;;;7.40;5.10;;;;;6.30;101993.00;;;;10374262;28;20210;-77
2023/04/04 19:52:04;;;;;;;8.40;4.47;;;;;6.20;101987.00;;;;10375443;28;20213;-77
2023/04/04 19:57:14;;;;;;;10.10;4.53;;;;;6.10;101985.00;;;;10351107;28;20823;-77
2023/04/04 20:02:42;;;;;;;6.63;4.23;;;;;6.10;101990.00;;;;10374041;28;20246;-77
2023/04/04 20:07:44;;;;;;;8.27;4.83;;;;;6.00;101981.00;;;;10382381;28;20202;-77
2023/04/04 20:12:46;;;;;;;9.17;5.03;;;;;5.90;101982.00;;;;10346862;28;20199;-77
2023/04/04 20:17:48;;;;;;;7.77;5.07;;;;;5.80;101999.00;;;;10423714;28;20253;-77
2023/04/04 20:22:50;;;;;;;6.33;4.47;;;;;5.60;101993.00;;;;10372220;28;20304;-78
2023/04/04 20:27:52;;;;;;;8.97;4.90;;;;;5.50;101996.00;;;;10392064;28;20194;-78
2023/04/04 20:32:54;;;;;;;11.90;5.30;;;;;5.30;101988.00;;;;10374153;28;20286;-78
2023/04/04 20:37:56;;;;;;;9.60;5.30;;;;;5.10;101998.00;;;;10386671;28;20198;-77
2023/04/04 20:42:58;;;;;;;7.67;5.33;;;;;4.90;101995.00;;;;10409663;28;20221;-78
2023/04/04 20:48:02;;;;;;;12.50;5.97;;;;;4.70;101992.00;;;;10386713;28;20337;-78
2023/04/04 20:53:16;;;;;;;8.27;6.07;;;;;4.50;101982.00;;;;10358541;28;20232;-79
2023/04/04 20:58:26;;;;;;;8.27;5.97;;;;;4.40;101986.00;;;;10377077;28;20348;-78
2023/04/04 21:03:33;;;;;;;10.37;6.50;;;;;4.20;101993.00;;;;10384429;28;20251;-77
2023/04/04 21:08:44;;;;;;;10.50;7.13;;;;;4.00;101979.00;;;;10385886;28;20262;-77
2023/04/04 21:13:46;;;;;;;12.47;6.87;;;;;3.90;101976.00;;;;10392173;28;20527;-77
2023/04/04 21:18:55;;;;;;;14.00;9.20;;;;;3.70;101972.00;;;;10395614;28;20653;-77
2023/04/04 21:23:58;;;;;;;13.83;7.60;;;;;3.60;101960.00;;;;10330246;28;20242;-77
2023/04/04 21:29:15;;;;;;;11.70;7.57;;;;;3.50;101956.00;;;;10376401;28;20210;-77
2023/04/04 21:34:20;;;;;;;14.43;7.50;;;;;3.50;101954.00;;;;10393212;28;20237;-77
2023/04/04 21:39:30;;;;;;;10.50;6.97;;;;;3.40;101944.00;;;;10332362;28;20210;-78
2023/04/04 21:44:32;;;;;;;12.93;7.13;;;;;3.30;101943.00;;;;10363090;28;20191;-77
2023/04/04 21:49:34;;;;;;;10.90;7.33;;;;;3.10;101935.00;;;;10383996;28;20274;-77
2023/04/04 21:54:36;;;;;;;13.77;7.00;;;;;3.10;101935.00;;;;10386198;28;20186;-78
2023/04/04 21:59:38;;;;;;;10.13;5.90;;;;;3.00;101951.00;;;;10374125;28;20531;-77
2023/04/04 22:04:40;;;;;;;9.77;6.03;;;;;2.90;101940.00;;;;10367599;28;20209;-77
2023/04/04 22:09:45;;;;;;;9.73;6.37;;;;;2.80;101943.00;;;;10398909;28;20199;-77
2023/04/04 22:14:49;;;;;;;9.10;6.63;;;;;2.70;101933.00;;;;10394894;28;20543;-77
2023/04/04 22:19:58;;;;;;;12.27;6.43;;;;;2.50;101926.00;;;;10368174;28;20317;-77
2023/04/04 22:25:03;;;;;;;14.07;6.43;;;;;2.50;101927.00;;;;10402286;28;20218;-77
2023/04/04 22:30:06;;;;;;;10.30;7.03;;;;;2.40;101915.00;;;;10377502;28;20211;-77
2023/04/04 22:35:11;;;;;;;13.23;7.37;;;;;2.40;101914.00;;;;10362697;28;20301;-77
2023/04/04 22:40:13;;;;;;;15.77;8.33;;;;;2.30;101907.00;;;;10350159;28;20267;-77
2023/04/04 22:45:15;;;;;;;15.60;8.10;;;;;2.30;101904.00;;;;10365932;28;20198;-77
2023/04/04 22:50:22;;;;;;;17.03;8.53;;;;;2.20;101902.00;;;;10366755;28;20199;-77
2023/04/04 22:55:25;;;;;;;12.93;7.80;;;;;2.10;101900.00;;;;10379283;28;20282;-77
2023/04/04 23:00:27;;;;;;;11.87;7.67;;;;;2.00;101892.00;;;;10357116;28;20221;-77
2023/04/04 23:05:29;;;;;;;13.57;7.93;;;;;1.90;101901.00;;;;10368595;28;20670;-77
2023/04/04 23:10:31;;;;;;;14.37;8.57;;;;;1.80;101899.00;;;;10396540;28;20207;-77
2023/04/04 23:15:36;;;;;;;12.03;8.00;;;;;1.70;101906.00;;;;10336747;28;20230;-77
2023/04/04 23:20:39;;;;;;;14.40;8.60;;;;;1.70;101906.00;;;;10375355;28;20219;-77
2023/04/04 23:25:41;;;;;;;14.63;8.03;;;;;1.70;101893.00;;;;10372816;28;20226;-77
2023/04/04 23:30:43;;;;;;;13.57;8.47;;;;;1.50;101884.00;;;;10379227;28;20214;-77
2023/04/04 23:35:45;;;;;;;15.60;9.20;;;;;1.40;101891.00;;;;10340851;28;20281;-77
2023/04/04 23:40:47;;;;;;;16.77;9.13;;;;;1.30;101884.00;;;;10372921;28;20249;-77
2023/04/04 23:45:50;;;;;;;12.57;7.80;;;;;1.30;101886.00;;;;10355599;28;20862;-77
2023/04/04 23:50:53;;;;;;;12.03;8.30;;;;;1.20;101873.00;;;;10390820;28;20210;-77
2023/04/04 23:55:55;;;;;;;14.60;10.00;;;;;1.20;101863.00;;;;10344158;28;20209;-77
